Time;durP1;ratioP1;P1;durP2;ratioP2;P2;SDS_P1;SDS_P2;PMS_P1;PMS_P2;Temp;Humidity;BMP_temperature;BMP_pressure;BME280_temperature;BME280_humidity;BME280_pressure;Samples;Min_cycle;Max_cycle;Signal;HPM_P1;HPM_P2
2023/04/26 00:00:28;;;;;;;7.00;3.10;;;6.20;57.20;;;;;;5057731;28;20309;-70
2023/04/26 00:02:54;;;;;;;8.88;2.97;;;6.30;51.30;;;;;;5040997;28;20466;-69
2023/04/26 00:05:20;;;;;;;7.93;3.40;;;6.20;55.40;;;;;;5058186;28;20037;-69
2023/04/26 00:07:46;;;;;;;7.32;3.05;;;6.10;56.30;;;;;;5024336;28;20041;-69
2023/04/26 00:10:12;;;;;;;9.52;2.90;;;6.30;54.00;;;;;;5057469;28;20072;-69
2023/04/26 00:12:40;;;;;;;4.45;2.50;;;6.20;58.30;;;;;;5040765;28;20403;-69
2023/04/26 00:15:09;;;;;;;8.38;3.30;;;6.20;57.90;;;;;;5040674;28;20029;-69
2023/04/26 00:17:35;;;;;;;8.27;3.10;;;6.20;58.60;;;;;;5057231;28;20033;-69
2023/04/26 00:20:03;;;;;;;7.38;3.60;;;6.30;56.40;;;;;;5057223;28;20099;-69
2023/04/26 00:22:28;;;;;;;7.22;3.42;;;6.30;54.50;;;;;;5040720;28;20053;-69
2023/04/26 00:24:54;;;;;;;7.32;3.63;;;6.20;59.70;;;;;;5057026;28;20067;-69
2023/04/26 00:27:20;;;;;;;10.68;3.33;;;6.30;58.80;;;;;;5057105;28;20044;-71
2023/04/26 00:29:46;;;;;;;8.65;3.53;;;6.30;58.50;;;;;;5056940;28;20296;-69
2023/04/26 00:32:12;;;;;;;7.22;3.58;;;6.20;59.50;;;;;;5040365;28;20040;-69
2023/04/26 00:34:38;;;;;;;6.25;3.85;;;6.20;62.50;;;;;;5057497;28;20040;-69
2023/04/26 00:37:04;;;;;;;9.50;4.20;;;6.10;63.80;;;;;;5056922;28;20025;-69
2023/04/26 00:39:30;;;;;;;10.70;4.13;;;6.20;65.00;;;;;;5057077;28;20029;-70
2023/04/26 00:41:56;;;;;;;7.00;3.50;;;6.20;60.50;;;;;;5056506;28;20028;-69
2023/04/26 00:44:22;;;;;;;12.40;4.40;;;6.10;64.50;;;;;;5056509;28;20025;-69
2023/04/26 00:46:52;;;;;;;12.00;4.18;;;6.10;66.20;;;;;;5056569;28;20037;-69
2023/04/26 00:49:21;;;;;;;6.93;3.80;;;6.10;67.10;;;;;;5056553;28;20289;-69
2023/04/26 00:51:50;;;;;;;9.27;4.00;;;6.10;65.10;;;;;;5056582;28;20033;-69
2023/04/26 00:54:18;;;;;;;9.65;4.03;;;6.00;69.30;;;;;;5057312;28;20029;-69
2023/04/26 00:56:45;;;;;;;11.27;4.45;;;6.00;71.10;;;;;;5056466;28;20303;-69
2023/04/26 00:59:11;;;;;;;7.15;3.72;;;6.00;71.30;;;;;;5056544;28;20099;-69
2023/04/26 01:01:37;;;;;;;8.05;3.92;;;6.10;68.80;;;;;;5039787;28;20404;-69
2023/04/26 01:04:03;;;;;;;10.18;4.65;;;6.00;68.00;;;;;;5056416;28;20367;-69
2023/04/26 01:06:34;;;;;;;7.75;3.83;;;5.80;73.50;;;;;;5056337;28;20041;-69
2023/04/26 01:09:07;;;;;;;11.82;4.95;;;5.50;84.50;;;;;;5056415;28;20048;-69
2023/04/26 01:11:34;;;;;;;10.73;4.70;;;5.50;86.20;;;;;;5057135;28;20296;-69
2023/04/26 01:14:01;;;;;;;10.07;4.57;;;5.50;86.70;;;;;;5056258;28;20435;-69
2023/04/26 01:16:27;;;;;;;8.40;5.10;;;5.50;87.50;;;;;;5039844;28;20033;-69
2023/04/26 01:18:53;;;;;;;9.23;4.97;;;5.40;88.90;;;;;;5039840;28;20032;-69
2023/04/26 01:21:23;;;;;;;9.45;5.20;;;5.50;88.20;;;;;;5056270;28;20029;-69
2023/04/26 01:23:50;;;;;;;10.52;5.20;;;5.60;84.80;;;;;;5056943;28;20094;-70
2023/04/26 01:26:16;;;;;;;8.10;5.10;;;5.50;85.40;;;;;;5056277;28;20128;-69
2023/04/26 01:28:42;;;;;;;11.68;5.90;;;5.60;83.20;;;;;;5039507;28;20081;-70
2023/04/26 01:31:08;;;;;;;9.90;5.75;;;5.50;85.60;;;;;;5056107;28;20025;-70
2023/04/26 01:33:34;;;;;;;9.95;6.15;;;5.50;84.70;;;;;;5023117;28;20032;-70
2023/04/26 01:36:00;;;;;;;12.48;6.47;;;5.50;85.00;;;;;;5056848;28;20040;-69
2023/04/26 01:38:28;;;;;;;14.25;6.63;;;5.50;86.40;;;;;;5056009;28;20312;-69
2023/04/26 01:40:53;;;;;;;10.27;6.50;;;5.60;84.20;;;;;;5056129;28;20037;-68
2023/04/26 01:43:21;;;;;;;10.57;6.15;;;5.70;81.10;;;;;;5056048;28;20102;-68
2023/04/26 01:45:48;;;;;;;13.90;6.88;;;5.60;82.70;;;;;;5055905;28;20095;-69
2023/04/26 01:48:29;;;;;;;11.27;6.55;;;5.40;87.30;;;;;;5056716;28;20041;-68
2023/04/26 01:50:55;;;;;;;11.75;6.13;;;5.40;89.80;;;;;;5056748;28;20106;-69
2023/04/26 01:53:21;;;;;;;15.43;7.22;;;5.30;91.80;;;;;;5056848;28;20025;-69
2023/04/26 01:55:46;;;;;;;12.40;7.30;;;5.40;91.20;;;;;;5060224;28;20075;-68
2023/04/26 01:58:12;;;;;;;12.40;6.43;;;5.30;91.10;;;;;;5060566;28;20040;-68
2023/04/26 02:00:38;;;;;;;12.30;6.60;;;5.30;90.20;;;;;;5059821;28;20032;-68
2023/04/26 02:03:04;;;;;;;11.85;7.10;;;5.30;91.70;;;;;;5059868;28;20122;-69
2023/04/26 02:05:30;;;;;;;14.10;7.15;;;5.30;91.80;;;;;;5043077;28;20033;-69
2023/04/26 02:07:56;;;;;;;13.07;7.38;;;5.30;92.60;;;;;;5026587;28;20044;-69
2023/04/26 02:10:22;;;;;;;11.43;7.10;;;5.10;94.10;;;;;;5043278;28;20053;-69
2023/04/26 02:12:48;;;;;;;12.48;6.90;;;5.10;95.00;;;;;;5060368;28;20111;-69
2023/04/26 02:15:14;;;;;;;12.02;7.95;;;5.10;95.30;;;;;;5059647;28;20029;-69
2023/04/26 02:17:40;;;;;;;15.32;7.90;;;5.30;94.80;;;;;;5059885;28;20041;-69
2023/04/26 02:20:09;;;;;;;16.52;8.05;;;5.40;92.40;;;;;;5026810;28;20419;-69
2023/04/26 02:22:35;;;;;;;14.90;8.23;;;5.40;91.40;;;;;;5059393;28;20048;-69
2023/04/26 02:25:01;;;;;;;12.10;7.90;;;5.40;91.20;;;;;;5042770;28;20394;-69
2023/04/26 02:27:27;;;;;;;16.27;10.50;;;5.30;92.20;;;;;;5060376;28;20029;-69
2023/04/26 02:29:53;;;;;;;15.43;8.70;;;5.40;92.70;;;;;;5059372;28;20035;-69
2023/04/26 02:32:19;;;;;;;15.68;8.75;;;5.30;92.00;;;;;;5060018;28;20029;-69
2023/04/26 02:34:45;;;;;;;17.45;10.70;;;5.20;92.20;;;;;;5042729;28;20422;-69
2023/04/26 02:37:12;;;;;;;15.60;10.68;;;5.20;93.20;;;;;;5026171;28;20037;-69
2023/04/26 02:39:38;;;;;;;18.15;10.02;;;5.10;94.80;;;;;;5042589;28;20083;-69
2023/04/26 02:42:09;;;;;;;16.70;10.38;;;5.00;96.10;;;;;;5042354;28;20408;-69
2023/04/26 02:44:35;;;;;;;16.85;10.15;;;5.00;96.90;;;;;;5059070;28;20120;-69
2023/04/26 02:47:01;;;;;;;18.25;10.02;;;5.00;96.50;;;;;;5025874;28;20037;-71
2023/04/26 02:49:28;;;;;;;15.35;9.27;;;5.00;96.80;;;;;;5059050;28;20039;-68
2023/04/26 02:51:54;;;;;;;16.83;9.90;;;5.00;95.80;;;;;;5042258;28;20422;-68
2023/04/26 02:54:20;;;;;;;16.42;9.48;;;5.00;95.40;;;;;;5009546;28;20032;-68
2023/04/26 02:56:46;;;;;;;14.45;9.77;;;5.10;95.40;;;;;;5025908;28;20033;-68
2023/04/26 02:59:12;;;;;;;15.18;9.07;;;5.00;97.00;;;;;;5058693;28;20047;-68
2023/04/26 03:01:38;;;;;;;15.65;9.40;;;5.00;97.70;;;;;;5042115;28;20052;-68
2023/04/26 03:04:04;;;;;;;19.17;9.15;;;5.00;97.10;;;;;;5041920;28;20051;-68
2023/04/26 03:06:31;;;;;;;13.18;8.25;;;5.00;97.00;;;;;;5074224;28;20044;-68
2023/04/26 03:08:58;;;;;;;16.00;9.27;;;5.10;96.80;;;;;;5009577;28;20170;-68
2023/04/26 03:11:24;;;;;;;16.25;8.73;;;5.00;96.70;;;;;;5041837;28;20329;-70
2023/04/26 03:13:50;;;;;;;15.57;8.68;;;5.00;98.00;;;;;;5058593;28;20029;-69
2023/04/26 03:16:22;;;;;;;14.68;8.55;;;5.10;96.80;;;;;;5041933;28;20044;-69
2023/04/26 03:18:48;;;;;;;18.85;9.27;;;5.20;95.50;;;;;;5041768;28;20041;-69
2023/04/26 03:21:14;;;;;;;16.98;8.63;;;5.20;95.50;;;;;;5041733;28;20125;-70
2023/04/26 03:23:40;;;;;;;16.15;9.15;;;5.30;95.30;;;;;;5058287;28;20100;-69
2023/04/26 03:26:06;;;;;;;14.60;8.48;;;5.30;93.80;;;;;;5042531;28;20273;-69
2023/04/26 03:28:32;;;;;;;14.65;9.27;;;5.10;94.60;;;;;;5058158;28;20095;-69
2023/04/26 03:30:58;;;;;;;13.77;9.23;;;5.10;96.00;;;;;;5008716;28;20036;-69
2023/04/26 03:33:24;;;;;;;15.50;8.65;;;5.20;95.00;;;;;;5025057;28;20036;-70
2023/04/26 03:35:50;;;;;;;17.35;9.05;;;5.20;94.50;;;;;;5041270;28;20131;-70
2023/04/26 03:38:16;;;;;;;14.93;8.77;;;5.20;94.40;;;;;;5041381;28;20118;-70
2023/04/26 03:40:42;;;;;;;14.60;8.88;;;5.30;93.40;;;;;;5041481;28;20064;-70
2023/04/26 03:43:08;;;;;;;15.45;8.60;;;5.20;93.80;;;;;;5008599;28;20403;-70
2023/04/26 03:45:35;;;;;;;14.75;9.20;;;5.20;94.40;;;;;;5057804;28;20029;-70
2023/04/26 03:48:01;;;;;;;16.67;8.85;;;5.40;92.50;;;;;;5024881;28;20029;-70
2023/04/26 03:50:28;;;;;;;12.73;8.18;;;5.40;90.90;;;;;;5057728;28;20128;-69
2023/04/26 03:52:54;;;;;;;18.25;9.02;;;5.30;90.90;;;;;;5041120;28;20427;-70
2023/04/26 03:55:20;;;;;;;14.57;8.88;;;5.30;92.80;;;;;;5041047;28;20043;-70
2023/04/26 03:57:46;;;;;;;17.13;9.30;;;5.30;91.90;;;;;;5057559;28;20418;-69
2023/04/26 04:00:13;;;;;;;12.93;8.95;;;5.20;92.60;;;;;;5041091;28;20020;-69
2023/04/26 04:02:42;;;;;;;15.48;8.70;;;5.10;93.90;;;;;;5058318;28;20048;-70
2023/04/26 04:05:11;;;;;;;14.27;8.27;;;5.10;94.20;;;;;;5041367;28;20033;-70
2023/04/26 04:07:37;;;;;;;15.65;8.27;;;5.00;95.40;;;;;;5040823;28;20041;-69
2023/04/26 04:10:03;;;;;;;14.00;8.40;;;5.00;96.50;;;;;;5041436;28;20037;-69
2023/04/26 04:12:29;;;;;;;13.20;8.18;;;4.90;96.30;;;;;;5057310;28;20399;-70
2023/04/26 04:14:55;;;;;;;13.85;8.43;;;4.90;96.30;;;;;;5024566;28;20059;-69
2023/04/26 04:17:22;;;;;;;15.10;8.63;;;4.90;96.30;;;;;;5040707;28;20044;-69
2023/04/26 04:19:49;;;;;;;14.13;8.27;;;4.90;96.50;;;;;;5040674;28;20047;-69
2023/04/26 04:22:15;;;;;;;14.85;9.05;;;4.90;96.80;;;;;;5073679;28;20059;-71
2023/04/26 04:24:43;;;;;;;16.38;8.70;;;4.90;97.00;;;;;;5057292;28;20045;-70
2023/04/26 04:27:09;;;;;;;17.60;10.77;;;4.90;96.60;;;;;;5040457;28;20047;-69
2023/04/26 04:29:35;;;;;;;19.77;11.88;;;4.90;97.20;;;;;;5024147;28;20090;-70
2023/04/26 04:32:01;;;;;;;16.88;10.88;;;4.80;97.80;;;;;;5056971;28;20029;-70
2023/04/26 04:34:27;;;;;;;16.23;10.82;;;4.80;98.30;;;;;;5056946;28;20316;-70
2023/04/26 04:36:54;;;;;;;16.95;10.68;;;4.90;97.80;;;;;;5056955;28;20029;-70
2023/04/26 04:39:20;;;;;;;14.07;9.95;;;4.90;97.50;;;;;;5056878;28;20343;-69
2023/04/26 04:41:48;;;;;;;18.33;10.30;;;4.90;97.20;;;;;;5040307;28;20025;-69
2023/04/26 04:44:17;;;;;;;14.38;10.40;;;5.00;96.90;;;;;;5040464;28;20029;-69
2023/04/26 04:46:43;;;;;;;14.60;10.93;;;5.10;95.90;;;;;;5023889;28;20124;-69
2023/04/26 04:49:12;;;;;;;15.65;10.32;;;5.10;95.80;;;;;;5057383;28;20376;-69
2023/04/26 04:51:38;;;;;;;17.05;10.35;;;5.20;95.10;;;;;;5040217;28;20025;-69
2023/04/26 04:54:12;;;;;;;17.30;10.35;;;5.20;95.40;;;;;;5056622;28;20040;-70
2023/04/26 04:56:38;;;;;;;19.25;10.40;;;5.30;94.90;;;;;;5056487;28;20117;-69
2023/04/26 04:59:04;;;;;;;17.65;10.25;;;5.30;94.80;;;;;;5056409;28;20093;-69
2023/04/26 05:01:32;;;;;;;18.55;11.13;;;5.20;95.30;;;;;;5056446;28;20037;-68
2023/04/26 05:04:01;;;;;;;17.80;10.93;;;5.20;96.90;;;;;;5056185;28;20048;-69
2023/04/26 05:06:27;;;;;;;16.95;10.23;;;5.20;97.40;;;;;;5023503;28;20374;-68
2023/04/26 05:08:54;;;;;;;21.80;14.27;;;5.30;96.70;;;;;;5057046;28;20021;-68
2023/04/26 05:11:20;;;;;;;17.02;13.40;;;5.40;96.30;;;;;;5039582;28;20056;-69
2023/04/26 05:13:47;;;;;;;22.10;14.90;;;5.40;94.40;;;;;;5039558;28;20072;-69
2023/04/26 05:16:13;;;;;;;19.80;13.57;;;5.30;94.50;;;;;;5039658;28;20418;-69
2023/04/26 05:18:39;;;;;;;23.63;12.32;;;5.30;95.20;;;;;;5056320;28;20033;-68
2023/04/26 05:21:06;;;;;;;20.13;11.75;;;5.30;94.50;;;;;;5040142;28;20103;-69
2023/04/26 05:23:33;;;;;;;22.58;9.30;;;5.30;95.60;;;;;;5056103;28;20281;-69
2023/04/26 05:26:05;;;;;;;16.95;9.07;;;5.20;95.70;;;;;;5039609;28;20075;-70
2023/04/26 05:28:54;;;;;;;16.52;8.77;;;5.30;96.40;;;;;;5056488;28;20041;-69
2023/04/26 05:31:20;;;;;;;22.23;8.90;;;5.20;95.20;;;;;;5057169;28;20414;-68
2023/04/26 05:34:05;;;;;;;17.30;8.02;;;5.10;96.60;;;;;;5056342;28;20358;-69
2023/04/26 05:36:36;;;;;;;13.75;7.78;;;5.10;98.00;;;;;;5056915;28;20057;-69
2023/04/26 05:39:04;;;;;;;17.38;8.30;;;5.00;98.30;;;;;;5056157;28;20074;-69
2023/04/26 05:41:30;;;;;;;13.75;7.65;;;4.90;98.50;;;;;;5055847;28;20037;-68
2023/04/26 05:43:56;;;;;;;12.43;7.40;;;5.00;98.70;;;;;;5039396;28;20322;-69
2023/04/26 05:46:22;;;;;;;11.60;7.40;;;5.20;97.30;;;;;;5022849;28;20072;-68
2023/04/26 05:48:48;;;;;;;14.32;7.90;;;5.10;97.20;;;;;;5039337;28;20340;-69
2023/04/26 05:51:14;;;;;;;18.25;8.70;;;5.20;98.50;;;;;;5056204;28;20060;-69
2023/04/26 05:53:41;;;;;;;18.35;8.32;;;5.30;96.20;;;;;;5023230;28;20032;-69
2023/04/26 05:56:07;;;;;;;16.75;8.20;;;5.30;94.90;;;;;;5055916;28;20359;-68
2023/04/26 05:58:33;;;;;;;14.57;7.93;;;5.30;94.60;;;;;;5055875;28;20086;-68
2023/04/26 06:01:00;;;;;;;16.20;7.43;;;5.40;94.40;;;;;;5039223;28;20044;-69
2023/04/26 06:03:25;;;;;;;19.30;8.98;;;5.70;95.00;;;;;;5038993;28;20045;-67
2023/04/26 06:05:52;;;;;;;16.92;8.63;;;6.00;92.50;;;;;;5055927;28;20419;-68
2023/04/26 06:08:20;;;;;;;15.27;8.63;;;6.20;82.60;;;;;;5023233;28;20025;-66
2023/04/26 06:10:48;;;;;;;16.75;8.45;;;6.30;72.00;;;;;;5055537;28;20037;-69
2023/04/26 06:13:14;;;;;;;16.58;8.50;;;6.20;76.70;;;;;;5039078;28;20032;-67
2023/04/26 06:15:40;;;;;;;15.77;8.60;;;6.40;73.10;;;;;;5055786;28;20036;-69
2023/04/26 06:18:06;;;;;;;21.95;8.65;;;6.20;75.70;;;;;;5038982;28;20128;-69
2023/04/26 06:20:32;;;;;;;19.73;9.05;;;6.40;75.90;;;;;;5038964;28;20278;-69
2023/04/26 06:22:58;;;;;;;17.75;8.88;;;6.80;72.20;;;;;;5039021;28;20033;-69
2023/04/26 06:25:24;;;;;;;14.93;8.82;;;7.10;67.50;;;;;;5056634;28;20423;-65
2023/04/26 06:27:50;;;;;;;15.75;8.82;;;7.20;54.70;;;;;;5055683;28;20033;-68
2023/04/26 06:30:16;;;;;;;15.50;8.82;;;7.30;53.50;;;;;;5055636;28;20033;-69
2023/04/26 06:32:45;;;;;;;19.88;9.13;;;7.20;52.10;;;;;;5023369;28;20053;-68
2023/04/26 06:35:11;;;;;;;15.93;8.77;;;7.00;53.30;;;;;;5022520;28;20029;-68
2023/04/26 06:37:38;;;;;;;18.77;9.40;;;6.80;55.80;;;;;;5038805;28;20047;-68
2023/04/26 06:40:06;;;;;;;14.60;9.15;;;7.10;56.20;;;;;;5055461;28;20041;-66
2023/04/26 06:42:32;;;;;;;20.63;9.32;;;7.00;53.40;;;;;;5042279;28;20041;-67
2023/04/26 06:45:18;;;;;;;16.70;8.90;;;6.90;54.70;;;;;;5044482;28;20084;-68
2023/04/26 06:47:45;;;;;;;16.67;8.70;;;7.00;54.50;;;;;;5026109;28;20052;-68
2023/04/26 06:50:12;;;;;;;17.10;8.15;;;7.10;49.90;;;;;;5042523;28;20053;-68
2023/04/26 06:52:37;;;;;;;20.27;9.15;;;7.30;45.50;;;;;;5058704;28;20407;-66
2023/04/26 06:55:04;;;;;;;16.95;8.45;;;7.50;34.10;;;;;;5058850;28;20033;-70
2023/04/26 06:57:30;;;;;;;13.20;6.75;;;7.40;42.50;;;;;;5058681;28;20118;-73
2023/04/26 06:59:56;;;;;;;16.73;8.07;;;7.30;38.40;;;;;;5025661;28;20299;-70
2023/04/26 07:02:23;;;;;;;16.70;7.93;;;7.40;33.60;;;;;;5058504;28;20032;-69
2023/04/26 07:04:49;;;;;;;16.08;7.78;;;7.30;35.70;;;;;;5041937;28;20061;-72
2023/04/26 07:07:15;;;;;;;13.60;7.65;;;7.50;34.10;;;;;;5042299;28;20031;-72
2023/04/26 07:09:42;;;;;;;15.23;7.82;;;7.80;32.90;;;;;;5075242;28;20351;-73
2023/04/26 07:12:10;;;;;;;13.10;7.35;;;7.80;28.60;;;;;;5041961;28;20037;-71
2023/04/26 07:14:39;;;;;;;17.73;7.68;;;8.00;26.80;;;;;;5059137;28;20045;-72
2023/04/26 07:17:06;;;;;;;16.58;7.68;;;8.10;21.00;;;;;;5059210;28;20032;-72
2023/04/26 07:19:32;;;;;;;17.08;7.68;;;8.60;18.40;;;;;;5025370;28;20040;-72
2023/04/26 07:21:57;;;;;;;15.60;7.25;;;9.20;1.30;;;;;;5058462;28;20047;-72
2023/04/26 07:24:23;;;;;;;11.75;7.05;;;9.60;1.00;;;;;;5025198;28;20033;-73
2023/04/26 07:26:49;;;;;;;11.77;5.85;;;9.80;1.00;;;;;;5041507;28;20043;-73
2023/04/26 07:29:16;;;;;;;10.05;5.80;;;10.10;1.00;;;;;;5058333;28;20025;-72
2023/04/26 07:31:42;;;;;;;14.02;5.20;;;10.20;1.00;;;;;;5058868;28;20029;-70
2023/04/26 07:34:08;;;;;;;10.57;5.55;;;9.80;1.00;;;;;;5058112;28;20059;-72
2023/04/26 07:36:33;;;;;;;14.30;5.22;;;9.60;1.00;;;;;;5058421;28;20128;-68
2023/04/26 07:38:59;;;;;;;8.05;4.50;;;9.20;1.00;;;;;;5057892;28;20047;-72
2023/04/26 07:41:25;;;;;;;10.00;5.07;;;9.00;1.00;;;;;;5057974;28;20029;-73
2023/04/26 07:43:51;;;;;;;9.88;4.78;;;9.10;1.00;;;;;;5058701;28;20033;-72
2023/04/26 07:46:17;;;;;;;10.50;4.32;;;9.70;1.00;;;;;;5058560;28;20037;-72
2023/04/26 07:48:43;;;;;;;10.13;4.57;;;9.70;1.00;;;;;;5057800;28;20031;-72
2023/04/26 07:51:12;;;;;;;16.27;5.50;;;10.00;1.00;;;;;;5057318;28;20033;-72
2023/04/26 07:53:39;;;;;;;16.05;4.75;;;10.40;1.00;;;;;;5057646;28;20040;-71
2023/04/26 07:56:09;;;;;;;14.30;5.40;;;10.70;1.00;;;;;;5041241;28;20053;-70
2023/04/26 07:58:38;;;;;;;8.48;4.80;;;10.50;1.00;;;;;;5057528;28;20126;-72
2023/04/26 08:01:04;;;;;;;11.30;5.55;;;10.70;1.00;;;;;;5057495;28;20033;-71
2023/04/26 08:03:31;;;;;;;11.57;6.00;;;10.60;1.00;;;;;;5057274;28;20049;-71
2023/04/26 08:05:57;;;;;;;15.63;6.38;;;10.30;1.00;;;;;;5058046;28;20065;-72
2023/04/26 08:08:25;;;;;;;13.88;7.22;;;9.90;1.00;;;;;;5057435;28;20043;-69
2023/04/26 08:10:52;;;;;;;17.38;8.88;;;9.90;1.00;;;;;;5057479;28;20040;-72
2023/04/26 08:13:18;;;;;;;22.65;11.48;;;9.60;1.00;;;;;;5058514;28;20047;-71
2023/04/26 08:15:43;;;;;;;17.05;9.18;;;9.30;1.00;;;;;;5057327;28;20392;-72
2023/04/26 08:18:10;;;;;;;16.30;8.90;;;9.20;1.00;;;;;;5024083;28;20299;-72
2023/04/26 08:20:35;;;;;;;17.30;9.15;;;9.40;1.00;;;;;;5057194;28;20347;-73
2023/04/26 08:23:01;;;;;;;15.65;7.38;;;9.90;1.00;;;;;;5057084;28;20029;-69
2023/04/26 08:25:27;;;;;;;8.20;6.00;;;10.20;1.00;;;;;;5057072;28;20110;-73
2023/04/26 08:27:54;;;;;;;13.60;8.45;;;10.30;1.00;;;;;;5056876;28;20044;-73
2023/04/26 08:30:20;;;;;;;16.60;7.68;;;10.50;1.00;;;;;;5058169;28;20025;-72
2023/04/26 08:32:46;;;;;;;13.20;5.88;;;10.20;1.00;;;;;;5057421;28;20123;-71
2023/04/26 08:35:12;;;;;;;13.10;6.20;;;10.00;1.00;;;;;;5040952;28;20070;-73
2023/04/26 08:37:38;;;;;;;14.18;7.00;;;10.40;1.00;;;;;;5056909;28;20312;-73
2023/04/26 08:40:08;;;;;;;12.75;5.90;;;11.00;1.00;;;;;;5058112;28;20032;-72
2023/04/26 08:42:42;;;;;;;14.18;6.47;;;11.50;1.00;;;;;;5057436;28;20037;-70
2023/04/26 08:45:10;;;;;;;10.98;5.60;;;11.40;1.00;;;;;;5057382;28;20036;-69
2023/04/26 08:47:44;;;;;;;9.55;5.60;;;10.30;1.00;;;;;;5057351;28;20104;-73
2023/04/26 08:50:15;;;;;;;9.85;5.82;;;10.10;1.00;;;;;;5057377;28;20024;-72
2023/04/26 08:52:42;;;;;;;11.25;5.35;;;10.90;1.00;;;;;;5056817;28;20037;-73
2023/04/26 08:55:09;;;;;;;9.45;4.75;;;11.40;1.00;;;;;;5056535;28;20055;-72
2023/04/26 08:57:35;;;;;;;12.00;6.00;;;11.80;1.00;;;;;;5056344;28;20047;-71
2023/04/26 09:00:08;;;;;;;12.13;4.68;;;11.90;99.90;;;;;;5057223;28;20024;-72
2023/04/26 09:02:34;;;;;;;10.73;4.38;;;11.90;87.50;;;;;;5056069;28;20021;-72
2023/04/26 09:05:00;;;;;;;12.25;5.03;;;12.40;1.00;;;;;;5055740;28;20044;-72
2023/04/26 09:07:29;;;;;;;7.85;4.18;;;12.80;1.00;;;;;;5056431;28;20033;-70
2023/04/26 09:09:57;;;;;;;9.20;4.65;;;13.10;1.00;;;;;;5056967;28;20017;-71
2023/04/26 09:12:24;;;;;;;7.05;4.40;;;12.40;99.90;;;;;;5072880;28;20307;-72
2023/04/26 09:14:50;;;;;;;10.77;4.60;;;12.50;99.90;;;;;;5056153;28;20115;-71
2023/04/26 09:17:33;;;;;;;5.68;4.15;;;12.90;99.90;;;;;;5057298;28;20033;-72
2023/04/26 09:20:00;;;;;;;11.15;4.40;;;13.40;7.40;;;;;;5057740;28;20388;-72
2023/04/26 09:22:34;;;;;;;5.28;3.38;;;13.10;99.90;;;;;;5056909;28;20021;-72
2023/04/26 09:25:02;;;;;;;6.13;3.75;;;13.10;1.00;;;;;;5056917;28;20048;-71
2023/04/26 09:27:43;;;;;;;3.53;2.60;;;12.30;1.00;;;;;;5056065;28;20090;-69
2023/04/26 09:30:12;;;;;;;6.50;2.75;;;12.20;99.90;;;;;;5056054;28;20029;-71
2023/04/26 09:32:48;;;;;;;4.20;2.42;;;12.30;99.90;;;;;;5056794;28;20035;-72
2023/04/26 09:35:31;;;;;;;6.53;2.67;;;12.70;1.00;;;;;;5039414;28;20028;-71
2023/04/26 09:38:02;;;;;;;4.90;2.08;;;12.50;1.00;;;;;;5056771;28;20116;-72
2023/04/26 09:40:30;;;;;;;2.90;2.03;;;12.20;1.00;;;;;;5055881;28;20032;-71
2023/04/26 09:43:04;;;;;;;5.88;2.13;;;12.70;99.90;;;;;;5056172;28;20300;-70
2023/04/26 09:45:32;;;;;;;7.82;2.45;;;13.00;99.90;;;;;;5039130;28;20029;-71
2023/04/26 09:48:19;;;;;;;7.40;3.10;;;13.50;99.90;;;;;;5056689;28;20339;-72
2023/04/26 09:50:45;;;;;;;9.05;3.50;;;13.90;1.00;;;;;;5039165;28;20336;-70
2023/04/26 09:53:30;;;;;;;7.22;3.17;;;12.50;99.90;;;;;;5055999;28;20048;-67
2023/04/26 09:56:06;;;;;;;5.93;2.55;;;11.60;27.90;;;;;;5039291;28;20039;-70
2023/04/26 09:58:32;;;;;;;7.82;3.30;;;11.70;1.00;;;;;;5057050;28;20355;-70
2023/04/26 10:00:58;;;;;;;6.07;2.75;;;12.70;1.00;;;;;;5039134;28;20025;-68
2023/04/26 10:03:25;;;;;;;5.88;2.92;;;13.10;99.90;;;;;;5055591;28;20041;-69
2023/04/26 10:05:51;;;;;;;5.35;3.17;;;12.60;1.00;;;;;;5038950;28;20078;-71
2023/04/26 10:08:17;;;;;;;5.50;2.85;;;13.20;1.00;;;;;;5039098;28;20299;-70
2023/04/26 10:10:44;;;;;;;5.95;3.10;;;13.90;99.90;;;;;;5055687;28;20033;-71
2023/04/26 10:13:11;;;;;;;5.97;3.00;;;14.10;1.00;;;;;;5038950;28;20362;-71
2023/04/26 10:15:39;;;;;;;8.75;3.35;;;14.20;99.90;;;;;;5058006;28;20059;-69
2023/04/26 10:18:05;;;;;;;7.57;2.88;;;14.50;1.00;;;;;;5059587;28;20407;-69
2023/04/26 10:20:31;;;;;;;6.68;2.75;;;14.80;99.90;;;;;;5060183;28;20052;-69
2023/04/26 10:23:00;;;;;;;5.78;2.70;;;14.90;1.00;;;;;;5059996;28;20029;-70
2023/04/26 10:25:37;;;;;;;5.90;2.80;;;15.30;1.00;;;;;;5059259;28;20028;-70
2023/04/26 10:28:03;;;;;;;5.15;2.85;;;15.80;99.90;;;;;;5042553;28;20304;-70
2023/04/26 10:30:31;;;;;;;6.97;2.80;;;16.10;1.00;;;;;;5059228;28;20327;-70
2023/04/26 10:32:56;;;;;;;6.15;2.95;;;16.30;1.00;;;;;;5059000;28;20025;-72
2023/04/26 10:35:25;;;;;;;11.02;3.00;;;16.40;1.00;;;;;;5059922;28;20163;-70
2023/04/26 10:38:05;;;;;;;6.30;2.97;;;16.40;1.00;;;;;;5075876;28;20082;-70
2023/04/26 10:40:39;;;;;;;5.35;2.88;;;16.50;99.90;;;;;;5042432;28;20059;-71
2023/04/26 10:43:14;;;;;;;6.28;2.85;;;16.60;99.90;;;;;;5042791;28;20041;-68
2023/04/26 10:45:47;;;;;;;6.30;2.90;;;16.20;99.90;;;;;;5058983;28;20025;-71
2023/04/26 10:48:36;;;;;;;4.28;2.40;;;15.10;99.90;;;;;;5059882;28;20043;-71
2023/04/26 10:51:07;;;;;;;6.13;2.72;;;16.00;1.00;;;;;;5059514;28;20128;-70
2023/04/26 10:53:48;;;;;;;6.13;2.65;;;17.90;99.90;;;;;;5059672;28;20291;-71
2023/04/26 10:56:23;;;;;;;3.78;2.20;;;18.80;1.00;;;;;;5042094;28;20029;-69
2023/04/26 10:59:06;;;;;;;5.82;2.60;;;20.10;99.90;;;;;;5058627;28;20044;-69
2023/04/26 11:01:32;;;;;;;7.57;2.92;;;21.30;99.90;;;;;;5058919;28;20105;-71
2023/04/26 11:03:58;;;;;;;7.38;3.15;;;20.30;1.00;;;;;;5059515;28;20127;-70
2023/04/26 11:06:25;;;;;;;3.80;2.72;;;21.50;1.00;;;;;;5059572;28;20257;-72
2023/04/26 11:08:52;;;;;;;5.28;2.83;;;21.80;1.00;;;;;;5042152;28;20033;-67
2023/04/26 11:11:19;;;;;;;4.38;3.10;;;19.50;1.00;;;;;;5041943;28;20025;-68
2023/04/26 11:13:46;;;;;;;4.72;2.70;;;17.80;1.00;;;;;;5042112;28;20102;-70
2023/04/26 11:16:16;;;;;;;6.25;2.90;;;19.40;1.00;;;;;;5059245;28;20032;-68
2023/04/26 11:18:47;;;;;;;6.43;2.97;;;20.60;1.00;;;;;;5041647;28;20041;-69
2023/04/26 11:21:16;;;;;;;6.88;3.00;;;21.00;1.00;;;;;;5059094;28;20083;-68
2023/04/26 11:23:51;;;;;;;6.10;2.97;;;21.70;1.00;;;;;;5042007;28;20035;-68
2023/04/26 11:26:17;;;;;;;6.63;3.80;;;22.00;1.00;;;;;;5057353;28;20025;-68
2023/04/26 11:28:44;;;;;;;6.75;4.00;;;21.80;1.00;;;;;;5008866;28;20025;-69
2023/04/26 11:31:10;;;;;;;5.82;3.63;;;20.60;1.00;;;;;;5058147;28;20116;-68
2023/04/26 11:33:36;;;;;;;8.27;3.45;;;19.10;1.00;;;;;;5041526;28;20439;-68
2023/04/26 11:36:02;;;;;;;7.40;3.65;;;18.20;1.00;;;;;;5057918;28;20155;-68
2023/04/26 11:38:28;;;;;;;4.78;3.17;;;18.10;1.00;;;;;;5058087;28;20407;-69
2023/04/26 11:41:02;;;;;;;5.22;3.30;;;18.10;1.00;;;;;;5058013;28;20036;-68
2023/04/26 11:43:35;;;;;;;6.85;3.30;;;18.20;1.00;;;;;;5041585;28;20117;-69
2023/04/26 11:46:01;;;;;;;7.88;3.30;;;18.40;1.00;;;;;;5057780;28;20033;-68
2023/04/26 11:48:28;;;;;;;6.65;3.25;;;18.20;1.00;;;;;;5041119;28;20080;-68
2023/04/26 11:50:58;;;;;;;6.20;3.20;;;18.30;1.00;;;;;;5041425;28;20033;-69
2023/04/26 11:53:24;;;;;;;3.88;2.88;;;18.60;1.00;;;;;;5057711;28;20044;-69
2023/04/26 11:55:51;;;;;;;5.32;3.85;;;18.70;1.00;;;;;;5024824;28;20319;-69
2023/04/26 11:58:17;;;;;;;7.80;3.72;;;18.70;1.00;;;;;;5058234;28;20410;-67
2023/04/26 12:01:01;;;;;;;6.10;4.00;;;18.70;1.00;;;;;;5057625;28;20108;-68
2023/04/26 12:03:36;;;;;;;6.20;3.65;;;18.60;1.00;;;;;;5057135;28;20044;-69
2023/04/26 12:06:04;;;;;;;9.10;3.65;;;18.30;1.00;;;;;;5041187;28;20055;-68
2023/04/26 12:08:31;;;;;;;8.98;3.70;;;18.30;1.00;;;;;;5040559;28;20013;-68
2023/04/26 12:11:01;;;;;;;10.52;4.13;;;18.10;1.00;;;;;;5040709;28;20037;-69
2023/04/26 12:13:31;;;;;;;6.63;3.88;;;17.90;1.00;;;;;;5040470;28;20029;-70
2023/04/26 12:15:57;;;;;;;12.43;3.75;;;17.50;1.00;;;;;;5024173;28;20052;-69
2023/04/26 12:18:30;;;;;;;6.05;3.70;;;18.00;1.00;;;;;;5040401;28;20036;-69
2023/04/26 12:21:00;;;;;;;8.65;3.83;;;18.80;1.00;;;;;;5057082;28;20055;-66
2023/04/26 12:23:26;;;;;;;7.28;3.30;;;18.70;1.00;;;;;;5040290;28;20029;-66
2023/04/26 12:25:56;;;;;;;8.02;3.00;;;18.60;1.00;;;;;;5057694;28;20265;-67
2023/04/26 12:28:23;;;;;;;7.10;2.70;;;18.80;1.00;;;;;;5056783;28;20384;-67
2023/04/26 12:30:50;;;;;;;7.20;3.03;;;19.00;1.00;;;;;;5056996;28;20031;-66
2023/04/26 12:33:18;;;;;;;7.25;3.15;;;19.40;1.00;;;;;;5040251;28;20071;-67
2023/04/26 12:35:45;;;;;;;8.23;3.30;;;19.90;1.00;;;;;;5057529;28;20037;-67
2023/04/26 12:38:11;;;;;;;6.30;2.63;;;20.30;1.00;;;;;;5056774;28;20033;-67
2023/04/26 12:40:38;;;;;;;5.38;2.67;;;20.60;1.00;;;;;;5057343;28;20244;-67
2023/04/26 12:43:03;;;;;;;9.88;3.58;;;20.30;1.00;;;;;;5057296;28;20374;-70
2023/04/26 12:45:29;;;;;;;4.40;2.92;;;20.10;1.00;;;;;;5039947;28;20124;-68
2023/04/26 12:47:55;;;;;;;7.88;3.17;;;19.70;1.00;;;;;;5056635;28;20040;-68
2023/04/26 12:50:21;;;;;;;6.70;3.00;;;19.20;1.00;;;;;;5057877;28;20166;-68
2023/04/26 12:52:47;;;;;;;6.90;3.53;;;19.00;1.00;;;;;;5039892;28;20065;-68